Time;durP1;ratioP1;P1;durP2;ratioP2;P2;SDS_P1;SDS_P2;PMS_P1;PMS_P2;Temp;Humidity;BMP_temperature;BMP_pressure;BME280_temperature;BME280_humidity;BME280_pressure;Samples;Min_cycle;Max_cycle;Signal;HPM_P1;HPM_P2
2023/11/17 00:01:47;;;;;;;6.55;4.07;;;;;;;3.95;100.00;97920.53;6103032;19;20073;-76
2023/11/17 00:03:47;;;;;;;7.22;4.38;;;;;;;3.94;100.00;97924.41;6101830;19;20045;-76
2023/11/17 00:05:47;;;;;;;6.28;4.38;;;;;;;3.93;100.00;97928.28;6101570;19;20029;-77
2023/11/17 00:07:48;;;;;;;9.57;4.82;;;;;;;3.94;100.00;97931.81;6101185;19;20062;-76
2023/11/17 00:09:48;;;;;;;6.68;4.43;;;;;;;3.90;100.00;97930.94;6099307;19;20018;-76
2023/11/17 00:11:48;;;;;;;7.47;4.45;;;;;;;3.88;100.00;97936.72;6101506;19;20338;-76
2023/11/17 00:13:49;;;;;;;6.88;4.10;;;;;;;3.89;100.00;97943.03;6100920;19;20636;-76
2023/11/17 00:15:52;;;;;;;7.63;4.50;;;;;;;3.87;100.00;97939.81;6100439;19;20675;-76
2023/11/17 00:17:52;;;;;;;8.00;4.50;;;;;;;3.80;100.00;97945.09;6098375;19;20003;-76
2023/11/17 00:19:53;;;;;;;9.07;4.60;;;;;;;3.77;100.00;97957.53;6103005;19;20482;-76
2023/11/17 00:21:53;;;;;;;9.00;4.47;;;;;;;3.74;100.00;97957.44;6102727;19;20007;-76
2023/11/17 00:23:53;;;;;;;11.10;5.03;;;;;;;3.69;100.00;97963.94;6102502;19;20363;-76
2023/11/17 00:25:56;;;;;;;9.60;5.07;;;;;;;3.65;100.00;97968.50;6100470;19;20459;-76
2023/11/17 00:27:57;;;;;;;6.68;5.07;;;;;;;3.64;100.00;97977.84;6091965;19;20298;-76
2023/11/17 00:29:57;;;;;;;10.80;5.45;;;;;;;3.58;100.00;97980.03;6102926;19;20024;-76
2023/11/17 00:31:58;;;;;;;12.57;5.68;;;;;;;3.60;100.00;97980.47;6098843;19;20077;-76
2023/11/17 00:33:59;;;;;;;9.38;5.65;;;;;;;3.61;100.00;97992.22;6100925;19;20006;-76
2023/11/17 00:35:59;;;;;;;9.98;5.00;;;;;;;3.61;100.00;97990.28;6100153;19;20402;-76
2023/11/17 00:37:59;;;;;;;11.55;4.68;;;;;;;3.58;100.00;97993.72;6098426;19;20014;-76
2023/11/17 00:40:00;;;;;;;7.43;4.70;;;;;;;3.57;100.00;97991.31;6101145;19;20094;-76
2023/11/17 00:42:00;;;;;;;9.57;4.53;;;;;;;3.57;100.00;97996.78;6102641;19;20006;-76
2023/11/17 00:44:01;;;;;;;7.38;4.63;;;;;;;3.51;100.00;97993.47;6101780;19;20336;-76
2023/11/17 00:46:02;;;;;;;6.75;4.38;;;;;;;3.50;100.00;98002.03;6098080;19;20014;-76
2023/11/17 00:48:03;;;;;;;6.68;4.53;;;;;;;3.52;100.00;98006.00;6099319;19;20467;-76
2023/11/17 00:50:09;;;;;;;9.05;4.18;;;;;;;3.52;100.00;97997.00;6101784;19;20039;-76
2023/11/17 00:52:11;;;;;;;7.40;4.50;;;;;;;3.47;100.00;98005.44;6100447;19;20003;-76
2023/11/17 00:54:14;;;;;;;7.88;4.50;;;;;;;3.46;100.00;98007.38;6101425;19;20007;-76
2023/11/17 00:56:14;;;;;;;6.88;4.40;;;;;;;3.42;100.00;98006.47;6099410;19;20017;-76
2023/11/17 00:58:14;;;;;;;11.48;6.22;;;;;;;3.39;100.00;98012.63;6099472;19;20395;-76
2023/11/17 01:00:15;;;;;;;8.82;4.53;;;;;;;3.38;100.00;98011.03;6100345;19;20607;-76
2023/11/17 01:02:15;;;;;;;9.98;4.68;;;;;;;3.37;100.00;98015.69;6100881;19;20105;-76
2023/11/17 01:04:16;;;;;;;7.13;4.63;;;;;;;3.42;100.00;98022.09;6100651;19;20213;-76
2023/11/17 01:06:16;;;;;;;7.55;5.20;;;;;;;3.38;100.00;98020.03;6098444;19;20360;-76
2023/11/17 01:08:17;;;;;;;9.82;4.80;;;;;;;3.38;100.00;98022.75;6098559;19;20011;-76
2023/11/17 01:10:18;;;;;;;8.15;5.00;;;;;;;3.41;100.00;98034.97;6100086;19;20027;-76
2023/11/17 01:12:18;;;;;;;7.80;4.80;;;;;;;3.42;100.00;98036.56;6099570;19;20002;-76
2023/11/17 01:14:19;;;;;;;8.82;5.20;;;;;;;3.40;100.00;98036.13;6098727;19;20707;-76
2023/11/17 01:16:20;;;;;;;9.05;4.63;;;;;;;3.40;100.00;98035.31;6097589;19;20066;-76
2023/11/17 01:18:21;;;;;;;8.65;4.95;;;;;;;3.37;100.00;98043.03;6099564;19;20053;-76
2023/11/17 01:20:21;;;;;;;8.52;4.30;;;;;;;3.38;100.00;98047.38;6099249;19;20376;-76
2023/11/17 01:22:21;;;;;;;9.13;4.20;;;;;;;3.40;100.00;98051.72;6101346;19;20046;-76
2023/11/17 01:24:22;;;;;;;10.80;5.00;;;;;;;3.40;100.00;98049.78;6098819;19;20027;-76
2023/11/17 01:26:24;;;;;;;7.88;4.43;;;;;;;3.41;100.00;98053.31;6095852;19;20025;-76
2023/11/17 01:28:25;;;;;;;7.32;5.05;;;;;;;3.41;100.00;98056.06;6093254;19;20289;-76
2023/11/17 01:30:25;;;;;;;12.32;4.63;;;;;;;3.45;100.00;98059.69;6091782;19;20409;-76
2023/11/17 01:32:25;;;;;;;8.75;5.65;;;;;;;3.50;100.00;98071.22;6090390;19;20082;-77
2023/11/17 01:34:27;;;;;;;6.05;4.68;;;;;;;3.49;100.00;98077.81;6092446;19;20013;-76
2023/11/17 01:36:27;;;;;;;8.55;5.20;;;;;;;3.52;100.00;98082.59;6088766;19;20014;-76
2023/11/17 01:38:28;;;;;;;9.77;4.80;;;;;;;3.51;100.00;98077.47;6091070;19;20017;-76
2023/11/17 01:40:30;;;;;;;8.65;5.03;;;;;;;3.46;100.00;98089.44;6089695;19;20011;-76
2023/11/17 01:42:34;;;;;;;;;;;;;;;3.53;100.00;98088.88;6090916;19;20015;-76
2023/11/17 01:44:34;;;;;;;9.05;4.90;;;;;;;3.51;100.00;98102.09;6089398;19;19928;-76
2023/11/17 01:46:34;;;;;;;9.52;5.32;;;;;;;3.48;100.00;98103.59;6088825;19;20360;-76
2023/11/17 01:48:37;;;;;;;11.32;5.80;;;;;;;3.43;100.00;98105.72;6090424;19;20763;-76
2023/11/17 01:50:37;;;;;;;13.05;5.40;;;;;;;3.47;100.00;98104.69;6091624;19;20372;-76
2023/11/17 01:52:40;;;;;;;8.80;5.40;;;;;;;3.43;100.00;98106.53;6090005;19;20002;-76
2023/11/17 01:54:41;;;;;;;7.05;4.45;;;;;;;3.39;100.00;98105.59;6092595;19;20375;-76
2023/11/17 01:56:42;;;;;;;9.80;4.72;;;;;;;3.35;100.00;98107.44;6091073;19;20010;-76
2023/11/17 01:58:42;;;;;;;7.85;4.20;;;;;;;3.28;100.00;98101.72;6091570;19;20010;-76
2023/11/17 02:00:42;;;;;;;6.97;3.88;;;;;;;3.17;100.00;98119.69;6091052;19;20442;-76
2023/11/17 02:02:44;;;;;;;7.47;3.83;;;;;;;3.07;100.00;98124.47;6091006;19;20035;-76
2023/11/17 02:04:44;;;;;;;9.93;3.97;;;;;;;3.04;100.00;98135.25;6090419;19;20014;-76
2023/11/17 02:06:57;;;;;;;6.68;4.35;;;;;;;2.99;100.00;98133.53;6090134;19;20019;-76
2023/11/17 02:09:13;;;;;;;;;;;;;;;2.97;100.00;98138.53;6092537;19;20010;-76
2023/11/17 02:11:30;;;;;;;8.05;4.20;;;;;;;2.93;100.00;98142.28;6090721;19;19922;-76
2023/11/17 02:13:55;;;;;;;12.25;5.70;;;;;;;2.91;100.00;98148.09;6088378;19;20355;-76
2023/11/17 02:16:02;;;;;;;11.77;4.78;;;;;;;2.86;100.00;98158.41;6091542;19;20108;-76
2023/11/17 02:18:04;;;;;;;13.48;5.22;;;;;;;2.79;100.00;98148.03;6088183;19;20046;-75
2023/11/17 02:20:11;;;;;;;10.90;6.32;;;;;;;2.71;100.00;98162.56;6091011;19;20086;-76
2023/11/17 02:22:17;;;;;;;10.25;5.57;;;;;;;2.77;100.00;98162.03;6090370;19;20034;-75
2023/11/17 02:24:18;;;;;;;9.38;5.70;;;;;;;2.75;100.00;98160.75;6090878;19;20494;-76
2023/11/17 02:26:31;;;;;;;7.80;5.32;;;;;;;2.75;100.00;98164.28;6089094;19;20082;-76
2023/11/17 02:28:58;;;;;;;10.15;5.57;;;;;;;2.73;100.00;98176.66;6090841;19;20691;-76
2023/11/17 02:31:10;;;;;;;8.70;4.80;;;;;;;2.75;100.00;98177.94;6096734;19;20013;-76
2023/11/17 02:33:11;;;;;;;10.38;5.47;;;;;;;2.76;100.00;98176.03;6099234;19;20318;-76
2023/11/17 02:35:11;;;;;;;7.00;5.10;;;;;;;2.73;100.00;98185.69;6098808;19;20021;-76
2023/11/17 02:37:12;;;;;;;10.02;5.32;;;;;;;2.61;100.00;98179.34;6095881;19;20366;-76
2023/11/17 02:39:25;;;;;;;11.85;5.70;;;;;;;2.66;100.00;98182.69;6098074;19;20009;-76
2023/11/17 02:41:32;;;;;;;;;;;;;;;2.65;100.00;98189.28;6099473;19;20494;-76
2023/11/17 02:43:32;;;;;;;7.38;4.72;;;;;;;2.56;100.00;98188.53;6098080;19;19915;-75
2023/11/17 02:45:36;;;;;;;7.05;5.10;;;;;;;2.59;100.00;98189.81;6096198;19;20595;-76
2023/11/17 02:47:38;;;;;;;10.38;5.72;;;;;;;2.57;100.00;98206.53;6096905;19;20007;-75
2023/11/17 02:49:40;;;;;;;9.20;5.85;;;;;;;2.54;100.00;98190.78;6097886;19;20389;-76
2023/11/17 02:51:44;;;;;;;9.02;5.60;;;;;;;2.50;100.00;98201.59;6097985;19;20241;-76
2023/11/17 02:53:49;;;;;;;10.73;5.82;;;;;;;2.49;100.00;98201.94;6098663;19;20010;-76
2023/11/17 02:55:50;;;;;;;10.25;5.20;;;;;;;2.53;100.00;98206.38;6098083;19;20050;-76
2023/11/17 02:57:54;;;;;;;6.68;5.07;;;;;;;2.55;100.00;98200.59;6095761;19;20399;-76
2023/11/17 02:59:55;;;;;;;7.38;4.72;;;;;;;2.51;100.00;98202.41;6097172;19;20010;-75
2023/11/17 03:01:56;;;;;;;7.75;4.57;;;;;;;2.47;100.00;98199.50;6096765;19;20010;-76
2023/11/17 03:03:56;;;;;;;7.20;4.97;;;;;;;2.41;100.00;98200.06;6096773;19;20624;-76
2023/11/17 03:06:00;;;;;;;8.70;4.65;;;;;;;2.40;100.00;98204.72;6096689;19;20478;-76
2023/11/17 03:08:00;;;;;;;8.98;4.55;;;;;;;2.34;100.00;98214.22;6095371;19;20003;-76
2023/11/17 03:10:03;;;;;;;7.75;4.60;;;;;;;2.33;100.00;98212.63;6102762;19;20011;-76
2023/11/17 03:12:06;;;;;;;6.28;4.43;;;;;;;2.43;100.00;98217.69;6101580;19;20022;-76
2023/11/17 03:14:08;;;;;;;9.15;5.00;;;;;;;2.36;100.00;98222.09;6104321;19;20017;-76
2023/11/17 03:16:09;;;;;;;8.90;4.68;;;;;;;2.34;100.00;98224.34;6102337;19;20011;-76
2023/11/17 03:18:10;;;;;;;8.43;4.95;;;;;;;2.29;100.00;98222.59;6103738;19;20002;-76
2023/11/17 03:20:16;;;;;;;8.43;4.95;;;;;;;2.23;100.00;98241.09;6103623;19;20010;-76
2023/11/17 03:22:16;;;;;;;11.60;5.25;;;;;;;2.21;100.00;98232.44;6104268;19;20321;-76
2023/11/17 03:24:23;;;;;;;7.97;5.10;;;;;;;2.25;100.00;98243.50;6104101;19;20233;-75
2023/11/17 03:26:23;;;;;;;11.02;5.50;;;;;;;2.20;100.00;98244.47;6101091;19;20011;-76
2023/11/17 03:28:24;;;;;;;9.75;5.47;;;;;;;2.16;100.00;98235.34;6102984;19;20011;-76
2023/11/17 03:30:24;;;;;;;12.63;5.55;;;;;;;2.09;100.00;98237.81;6103941;19;20070;-76
2023/11/17 03:32:28;;;;;;;9.80;5.47;;;;;;;2.04;100.00;98243.44;6104102;19;20029;-76
2023/11/17 03:34:30;;;;;;;7.57;5.53;;;;;;;2.01;100.00;98241.38;6103512;19;20013;-76
2023/11/17 03:36:30;;;;;;;7.85;5.28;;;;;;;2.10;100.00;98244.84;6102697;19;20486;-75
2023/11/17 03:38:31;;;;;;;6.68;4.30;;;;;;;2.13;100.00;98255.09;6101147;19;20006;-76
2023/11/17 03:40:35;;;;;;;7.78;5.30;;;;;;;2.07;100.00;98253.72;6102530;19;20650;-76
2023/11/17 03:42:36;;;;;;;11.20;5.30;;;;;;;2.06;100.00;98256.75;6103272;19;20373;-76
2023/11/17 03:44:37;;;;;;;9.23;5.32;;;;;;;2.00;100.00;98267.06;6100936;19;20039;-76
2023/11/17 03:46:37;;;;;;;11.10;5.78;;;;;;;1.95;100.00;98262.56;6102469;19;20352;-76
2023/11/17 03:48:37;;;;;;;9.60;5.60;;;;;;;1.98;100.00;98263.81;6100189;19;20010;-76
2023/11/17 03:50:38;;;;;;;9.65;5.63;;;;;;;2.00;100.00;98260.81;6102393;19;20012;-76
2023/11/17 03:52:42;;;;;;;12.32;5.65;;;;;;;1.91;100.00;98266.28;6101012;19;20048;-76
2023/11/17 03:54:42;;;;;;;9.27;5.72;;;;;;;1.90;100.00;98272.84;6103524;19;20012;-76
2023/11/17 03:56:44;;;;;;;10.77;5.32;;;;;;;1.88;100.00;98277.84;6100962;19;20010;-76
2023/11/17 03:58:45;;;;;;;11.10;6.32;;;;;;;1.86;100.00;98272.72;6103629;19;20003;-75
2023/11/17 04:00:48;;;;;;;10.15;5.65;;;;;;;1.84;100.00;98274.16;6101180;19;20002;-76
2023/11/17 04:02:52;;;;;;;10.60;5.80;;;;;;;1.81;100.00;98281.06;6104012;19;20387;-76
2023/11/17 04:04:52;;;;;;;10.45;5.97;;;;;;;1.77;100.00;98282.84;6102476;19;20007;-75
2023/11/17 04:06:55;;;;;;;11.38;5.80;;;;;;;1.74;100.00;98280.78;6094577;19;20017;-76
2023/11/17 04:08:57;;;;;;;9.60;6.80;;;;;;;1.70;100.00;98285.25;6100426;19;20462;-76
2023/11/17 04:10:58;;;;;;;9.65;6.07;;;;;;;1.64;100.00;98292.81;6103150;19;20343;-76
2023/11/17 04:12:59;;;;;;;12.55;6.88;;;;;;;1.65;100.00;98296.34;6101535;19;20463;-76
2023/11/17 04:14:59;;;;;;;12.60;7.45;;;;;;;1.62;100.00;98299.72;6103153;19;20532;-76
2023/11/17 04:16:59;;;;;;;11.25;6.43;;;;;;;1.63;100.00;98296.66;6101555;19;20014;-76
2023/11/17 04:19:00;;;;;;;12.10;6.75;;;;;;;1.66;100.00;98297.97;6101071;19;20948;-75
2023/11/17 04:21:00;;;;;;;12.35;5.90;;;;;;;1.64;100.00;98302.91;6099460;19;20010;-76
2023/11/17 04:23:01;;;;;;;11.23;6.00;;;;;;;1.57;100.00;98297.16;6102633;19;20053;-76
2023/11/17 04:25:03;;;;;;;12.00;6.72;;;;;;;1.57;100.00;98297.97;6103000;19;20365;-76
2023/11/17 04:27:04;;;;;;;;;;;;;;;1.57;100.00;98299.88;6099774;19;20005;-75
2023/11/17 04:29:05;;;;;;;9.00;5.38;;;;;;;1.56;100.00;98301.81;6101110;19;20397;-76
2023/11/17 04:31:07;;;;;;;11.73;5.95;;;;;;;1.61;100.00;98306.31;6099284;19;20014;-76
2023/11/17 04:33:07;;;;;;;9.35;5.85;;;;;;;1.58;100.00;98312.41;6099426;19;20559;-76
2023/11/17 04:35:08;;;;;;;10.60;6.03;;;;;;;1.63;100.00;98312.22;6103326;19;19999;-76
2023/11/17 04:37:08;;;;;;;12.75;5.97;;;;;;;1.57;100.00;98324.41;6099684;19;20465;-76
2023/11/17 04:39:17;;;;;;;10.30;5.82;;;;;;;1.54;100.00;98328.59;6101263;19;19999;-76
2023/11/17 04:41:19;;;;;;;9.48;6.13;;;;;;;1.54;100.00;98322.34;6100786;19;20006;-76
2023/11/17 04:43:20;;;;;;;;;;;;;;;1.54;100.00;98331.31;6102644;19;20455;-76
2023/11/17 04:45:21;;;;;;;13.43;6.25;;;;;;;1.51;100.00;98321.06;6101929;19;19918;-76
2023/11/17 04:47:23;;;;;;;12.07;6.78;;;;;;;1.44;100.00;98323.47;6100459;19;20257;-76
2023/11/17 04:49:23;;;;;;;12.35;7.10;;;;;;;1.42;100.00;98319.47;6101400;19;20362;-76
2023/11/17 04:51:23;;;;;;;11.48;6.20;;;;;;;1.39;100.00;98331.81;6102919;19;20011;-75
2023/11/17 04:53:24;;;;;;;11.00;6.68;;;;;;;1.43;100.00;98337.44;6101355;19;20553;-76
2023/11/17 04:55:24;;;;;;;13.63;6.75;;;;;;;1.37;100.00;98332.13;6101383;19;20006;-76
2023/11/17 04:57:24;;;;;;;11.48;6.30;;;;;;;1.48;100.00;98334.53;6100017;19;20007;-75
2023/11/17 04:59:25;;;;;;;10.15;6.90;;;;;;;1.48;100.00;98323.63;6100377;19;20418;-76
2023/11/17 05:01:26;;;;;;;12.88;6.95;;;;;;;1.44;100.00;98342.56;6099386;19;20011;-76
2023/11/17 05:03:26;;;;;;;11.75;7.00;;;;;;;1.36;100.00;98338.72;6099110;19;20011;-76
2023/11/17 05:05:27;;;;;;;11.90;6.40;;;;;;;1.33;100.00;98346.75;6101707;19;20035;-76
2023/11/17 05:07:27;;;;;;;9.13;5.43;;;;;;;1.35;100.00;98348.03;6099343;19;20071;-76
2023/11/17 05:09:28;;;;;;;9.52;5.72;;;;;;;1.35;100.00;98348.03;6100075;19;20037;-76
2023/11/17 05:11:30;;;;;;;8.02;5.10;;;;;;;1.33;100.00;98342.09;6100780;19;20024;-75
2023/11/17 05:13:32;;;;;;;7.68;4.95;;;;;;;1.34;100.00;98351.88;6100883;19;20010;-75
2023/11/17 05:15:32;;;;;;;8.73;5.38;;;;;;;1.33;100.00;98346.75;6100706;19;20018;-76
2023/11/17 05:17:43;;;;;;;7.80;4.90;;;;;;;1.29;100.00;98356.66;6098769;19;19998;-76
2023/11/17 05:19:45;;;;;;;7.20;4.68;;;;;;;1.28;100.00;98355.88;6099955;19;20007;-76
2023/11/17 05:21:45;;;;;;;8.27;5.30;;;;;;;1.22;100.00;98356.34;6101090;19;20017;-76
2023/11/17 05:23:46;;;;;;;7.68;4.80;;;;;;;1.19;100.00;98357.00;6097808;19;20010;-76
2023/11/17 05:25:47;;;;;;;7.03;3.97;;;;;;;1.17;100.00;98359.25;6100694;19;20073;-75
2023/11/17 05:27:48;;;;;;;8.98;5.00;;;;;;;1.12;100.00;98366.44;6090012;19;20006;-75
2023/11/17 05:29:49;;;;;;;7.43;4.50;;;;;;;1.20;100.00;98364.03;6100300;19;20038;-76
2023/11/17 05:31:49;;;;;;;10.90;4.50;;;;;;;1.22;100.00;98357.13;6099617;19;20006;-76
2023/11/17 05:33:49;;;;;;;8.90;4.75;;;;;;;1.17;100.00;98359.25;6099735;19;20006;-76
2023/11/17 05:35:50;;;;;;;6.35;4.30;;;;;;;1.16;100.00;98366.63;6100160;19;20003;-75
2023/11/17 05:37:51;;;;;;;7.68;4.55;;;;;;;1.19;100.00;98365.97;6097644;19;20476;-76
2023/11/17 05:39:51;;;;;;;6.85;4.30;;;;;;;1.18;100.00;98371.75;6099220;19;20014;-76
2023/11/17 05:41:52;;;;;;;6.25;3.90;;;;;;;1.19;100.00;98376.88;6100488;19;20009;-76
2023/11/17 05:43:53;;;;;;;5.70;3.75;;;;;;;1.19;100.00;98374.16;6100878;19;20640;-76
2023/11/17 05:45:55;;;;;;;6.97;3.72;;;;;;;1.16;100.00;98377.50;6098442;19;20015;-75
2023/11/17 05:47:55;;;;;;;7.18;4.63;;;;;;;1.15;100.00;98381.34;6097224;19;20007;-75
2023/11/17 05:49:56;;;;;;;6.90;3.97;;;;;;;1.21;100.00;98379.28;6100845;19;20003;-76
2023/11/17 05:51:57;;;;;;;5.70;3.22;;;;;;;1.27;100.00;98388.91;6098100;19;20023;-76
2023/11/17 05:53:57;;;;;;;6.05;3.75;;;;;;;1.29;100.00;98390.19;6097815;19;20014;-75
2023/11/17 05:55:58;;;;;;;16.10;4.10;;;;;;;1.23;100.00;98391.44;6098895;19;20011;-76
2023/11/17 05:57:58;;;;;;;6.38;3.97;;;;;;;1.29;100.00;98400.28;6099766;19;20007;-76
2023/11/17 05:59:59;;;;;;;5.30;3.40;;;;;;;1.25;100.00;98402.84;6097324;19;20013;-75
2023/11/17 06:02:02;;;;;;;6.68;3.97;;;;;;;1.26;100.00;98403.66;6094193;19;20364;-75
2023/11/17 06:04:02;;;;;;;5.57;3.70;;;;;;;1.30;100.00;98407.34;6096704;19;20460;-75
2023/11/17 06:06:03;;;;;;;6.35;3.63;;;;;;;1.29;100.00;98414.72;6095501;19;20007;-76
2023/11/17 06:08:04;;;;;;;7.45;4.28;;;;;;;1.27;100.00;98416.16;6096380;19;20414;-75
2023/11/17 06:10:05;;;;;;;5.10;3.40;;;;;;;1.35;100.00;98420.81;6095942;19;20011;-76
2023/11/17 06:12:06;;;;;;;8.30;5.35;;;;;;;1.30;100.00;98427.22;6097138;19;20011;-76
2023/11/17 06:14:07;;;;;;;8.15;6.10;;;;;;;1.24;100.00;98420.34;6096312;19;20003;-76
2023/11/17 06:16:07;;;;;;;5.75;3.85;;;;;;;1.28;100.00;98429.47;6095374;19;20034;-75
2023/11/17 06:18:07;;;;;;;5.32;3.60;;;;;;;1.30;100.00;98427.22;6096034;19;20663;-75
2023/11/17 06:20:08;;;;;;;4.15;2.92;;;;;;;1.36;100.00;98441.50;6097079;19;20007;-75
2023/11/17 06:22:09;;;;;;;5.63;3.28;;;;;;;1.38;100.00;98441.97;6099566;19;20011;-76
2023/11/17 06:24:09;;;;;;;6.43;3.60;;;;;;;1.39;100.00;98446.31;6098156;19;20091;-75
2023/11/17 06:26:10;;;;;;;6.78;3.70;;;;;;;1.34;100.00;98444.56;6096358;19;20371;-75
2023/11/17 06:28:10;;;;;;;6.70;4.60;;;;;;;1.36;100.00;98449.69;6091776;19;20014;-75
2023/11/17 06:30:11;;;;;;;5.18;3.92;;;;;;;1.33;100.00;98450.31;6089935;19;20297;-75
2023/11/17 06:32:11;;;;;;;4.38;3.42;;;;;;;1.34;100.00;98460.91;6091412;19;20054;-76
2023/11/17 06:34:12;;;;;;;6.75;4.13;;;;;;;1.37;100.00;98457.53;6090856;19;20018;-75
2023/11/17 06:36:12;;;;;;;10.00;4.60;;;;;;;1.44;100.00;98461.72;6088344;19;19995;-75
2023/11/17 06:38:13;;;;;;;7.22;4.30;;;;;;;1.43;100.00;98463.66;6091390;19;20018;-76
2023/11/17 06:40:15;;;;;;;6.68;3.88;;;;;;;1.40;100.00;98465.06;6089219;19;20422;-76
2023/11/17 06:42:15;;;;;;;5.53;3.58;;;;;;;1.43;100.00;98466.38;6088058;19;20134;-75
2023/11/17 06:44:20;;;;;;;10.25;3.72;;;;;;;1.44;100.00;98469.91;6092716;19;20255;-75
2023/11/17 06:46:23;;;;;;;6.35;3.35;;;;;;;1.47;100.00;98472.78;6095125;19;20006;-76
2023/11/17 06:48:27;;;;;;;6.10;3.42;;;;;;;1.51;100.00;98479.22;6095968;19;20018;-76
2023/11/17 06:50:27;;;;;;;6.40;3.65;;;;;;;1.53;100.00;98478.91;6094805;19;20003;-75
2023/11/17 06:52:27;;;;;;;5.88;3.97;;;;;;;1.53;100.00;98481.63;6095418;19;20010;-75
2023/11/17 06:54:28;;;;;;;5.57;3.30;;;;;;;1.55;100.00;98482.09;6095971;19;20014;-76
2023/11/17 06:56:29;;;;;;;5.80;3.90;;;;;;;1.55;100.00;98485.63;6093244;19;20013;-75
2023/11/17 06:58:29;;;;;;;5.45;3.65;;;;;;;1.57;100.00;98491.59;6096416;19;20007;-76
2023/11/17 07:00:30;;;;;;;7.00;5.07;;;;;;;1.56;100.00;98489.97;6092331;19;20522;-75
2023/11/17 07:02:31;;;;;;;5.93;4.78;;;;;;;1.51;100.00;98484.69;6094920;19;20048;-75
2023/11/17 07:04:32;;;;;;;4.97;3.50;;;;;;;1.59;100.00;98492.06;6094905;19;20276;-75
2023/11/17 07:06:34;;;;;;;10.30;7.45;;;;;;;1.62;100.00;98502.31;6094727;19;20078;-75
2023/11/17 07:08:34;;;;;;;7.37;4.17;;;;;;;1.61;100.00;98505.38;6092907;19;20281;-75
2023/11/17 07:10:36;;;;;;;4.70;3.63;;;;;;;1.59;100.00;98510.34;6095977;19;20227;-75
2023/11/17 07:12:38;;;;;;;12.45;6.32;;;;;;;1.54;100.00;98513.22;6094803;19;20013;-75
2023/11/17 07:14:38;;;;;;;6.55;4.80;;;;;;;1.61;100.00;98511.63;6095890;19;20396;-75
2023/11/17 07:16:41;;;;;;;5.57;3.40;;;;;;;1.64;100.00;98512.91;6094522;19;20016;-75
2023/11/17 07:18:42;;;;;;;5.70;3.63;;;;;;;1.58;100.00;98512.28;6095452;19;20010;-75
2023/11/17 07:20:43;;;;;;;6.88;4.40;;;;;;;1.54;100.00;98519.47;6095418;19;20006;-76
2023/11/17 07:22:43;;;;;;;7.40;5.47;;;;;;;1.54;100.00;98524.94;6095096;19;20027;-75
2023/11/17 07:24:43;;;;;;;7.30;4.30;;;;;;;1.67;100.00;98518.56;6095216;19;20024;-75
2023/11/17 07:26:45;;;;;;;11.52;6.55;;;;;;;1.63;100.00;98525.75;6094497;19;20434;-76
2023/11/17 07:28:47;;;;;;;14.85;7.35;;;;;;;1.60;100.00;98534.59;6099836;19;20238;-75
2023/11/17 07:30:50;;;;;;;14.52;7.82;;;;;;;1.56;100.00;98536.31;6103370;19;20320;-75
2023/11/17 07:32:50;;;;;;;9.35;4.60;;;;;;;1.58;100.00;98541.47;6103154;19;20035;-76
2023/11/17 07:34:51;;;;;;;5.25;3.83;;;;;;;1.60;100.00;98545.50;6104078;19;20015;-75
2023/11/17 07:36:52;;;;;;;5.68;3.70;;;;;;;1.63;100.00;98544.03;6101633;19;20021;-75
2023/11/17 07:38:52;;;;;;;4.35;3.13;;;;;;;1.67;100.00;98547.75;6101535;19;20003;-75
2023/11/17 07:40:52;;;;;;;4.65;3.30;;;;;;;1.72;100.00;98552.25;6103865;19;20003;-76
2023/11/17 07:42:53;;;;;;;5.03;3.30;;;;;;;1.71;100.00;98553.38;6103222;19;20502;-75
2023/11/17 07:44:53;;;;;;;8.30;3.83;;;;;;;1.75;100.00;98551.63;6102946;19;19998;-75
2023/11/17 07:46:54;;;;;;;6.32;4.28;;;;;;;1.74;100.00;98555.44;6102113;19;20007;-75
2023/11/17 07:48:57;;;;;;;9.98;5.68;;;;;;;1.74;100.00;98553.56;6101988;19;20014;-75
2023/11/17 07:50:58;;;;;;;6.88;4.80;;;;;;;1.74;100.00;98553.56;6104049;19;20402;-75
2023/11/17 07:52:59;;;;;;;12.07;5.88;;;;;;;1.70;100.00;98549.84;6103307;19;20010;-75
2023/11/17 07:55:00;;;;;;;8.52;5.20;;;;;;;1.73;100.00;98554.66;6100942;19;20006;-75
2023/11/17 07:57:00;;;;;;;13.65;6.82;;;;;;;1.75;100.00;98552.44;6100898;19;20467;-75
2023/11/17 07:59:03;;;;;;;15.02;7.65;;;;;;;1.73;100.00;98554.66;6102429;19;20113;-75
2023/11/17 08:01:09;;;;;;;10.98;5.90;;;;;;;1.77;100.00;98560.28;6102598;19;20002;-75
2023/11/17 08:03:10;;;;;;;13.68;7.18;;;;;;;1.82;100.00;98565.56;6102408;19;20003;-75
2023/11/17 08:05:10;;;;;;;11.05;6.00;;;;;;;1.88;100.00;98551.47;6103135;19;20470;-75
2023/11/17 08:07:11;;;;;;;14.23;7.90;;;;;;;1.85;100.00;98554.03;6101373;19;20217;-75
2023/11/17 08:09:12;;;;;;;23.45;8.90;;;;;;;1.93;100.00;98561.44;6102042;19;20006;-75
2023/11/17 08:11:15;;;;;;;11.65;6.20;;;;;;;1.93;100.00;98567.69;6103232;19;20907;-75
2023/11/17 08:13:15;;;;;;;7.43;4.90;;;;;;;1.91;100.00;98550.03;6102622;19;20010;-75
2023/11/17 08:15:19;;;;;;;5.30;4.10;;;;;;;1.95;100.00;98549.06;6102839;19;20433;-75
2023/11/17 08:17:19;;;;;;;5.80;3.50;;;;;;;1.98;100.00;98551.16;6100873;19;20287;-75
2023/11/17 08:19:19;;;;;;;5.55;4.05;;;;;;;2.01;100.00;98562.56;6101728;19;20013;-75
2023/11/17 08:21:20;;;;;;;5.55;4.07;;;;;;;2.03;100.00;98561.13;6102287;19;20392;-76
2023/11/17 08:23:21;;;;;;;5.40;3.50;;;;;;;2.14;100.00;98565.13;6101808;19;20107;-75
2023/11/17 08:25:21;;;;;;;5.00;3.70;;;;;;;2.21;100.00;98567.38;6101804;19;20007;-75
2023/11/17 08:27:22;;;;;;;5.20;3.40;;;;;;;2.36;100.00;98574.31;6101077;19;20002;-75
2023/11/17 08:29:23;;;;;;;5.43;3.38;;;;;;;2.40;100.00;98565.16;6101945;19;20010;-75
2023/11/17 08:31:23;;;;;;;5.85;3.72;;;;;;;2.42;100.00;98573.81;6101832;19;20463;-75
2023/11/17 08:33:24;;;;;;;4.57;3.45;;;;;;;2.53;100.00;98579.75;6102100;19;20009;-75
2023/11/17 08:35:24;;;;;;;7.40;3.92;;;;;;;2.47;100.00;98575.56;6102419;19;20086;-75
2023/11/17 08:37:25;;;;;;;7.07;4.20;;;;;;;2.54;100.00;98578.63;6100286;19;20030;-75
2023/11/17 08:39:25;;;;;;;7.00;3.75;;;;;;;2.52;100.00;98569.97;6102323;19;20031;-75
2023/11/17 08:41:26;;;;;;;6.22;3.92;;;;;;;2.49;100.00;98571.41;6099851;19;20405;-75
2023/11/17 08:43:27;;;;;;;5.93;4.25;;;;;;;2.54;100.00;98578.63;6102049;19;20010;-75
2023/11/17 08:45:27;;;;;;;6.72;4.28;;;;;;;2.57;100.00;98571.75;6101026;19;20079;-75
2023/11/17 08:47:29;;;;;;;5.15;3.83;;;;;;;2.56;100.00;98583.75;6101342;19;20614;-75
2023/11/17 08:49:29;;;;;;;5.10;3.35;;;;;;;2.53;100.00;98583.28;6101800;19;20371;-75
2023/11/17 08:51:31;;;;;;;6.10;3.55;;;;;;;2.62;100.00;98585.22;6102234;19;20460;-75
2023/11/17 08:53:32;;;;;;;9.63;4.50;;;;;;;2.58;100.00;98590.53;6100972;19;20013;-75
2023/11/17 08:55:32;;;;;;;4.53;3.50;;;;;;;2.60;100.00;98593.72;6102006;19;20067;-76
2023/11/17 08:57:33;;;;;;;5.15;3.72;;;;;;;2.60;100.00;98596.47;6100325;19;20335;-75
2023/11/17 08:59:37;;;;;;;4.85;4.05;;;;;;;2.62;100.00;98593.41;6101407;19;20015;-75
2023/11/17 09:01:39;;;;;;;6.30;3.95;;;;;;;2.64;100.00;98593.88;6100472;19;20096;-75
2023/11/17 09:03:39;;;;;;;5.80;4.32;;;;;;;2.71;100.00;98599.66;6101738;19;20014;-76
2023/11/17 09:05:39;;;;;;;6.18;4.38;;;;;;;2.78;100.00;98589.84;6099597;19;20010;-75
2023/11/17 09:07:47;;;;;;;6.50;4.18;;;;;;;2.79;100.00;98590.66;6098750;19;20007;-75
2023/11/17 09:09:47;;;;;;;6.95;3.78;;;;;;;2.81;100.00;98588.38;6100568;19;20014;-75
2023/11/17 09:11:48;;;;;;;7.55;4.32;;;;;;;2.89;100.00;98600.44;6102160;19;20010;-75
2023/11/17 09:13:49;;;;;;;5.35;3.90;;;;;;;2.95;100.00;98607.34;6100228;19;20017;-75
2023/11/17 09:15:50;;;;;;;4.97;3.55;;;;;;;2.99;100.00;98600.91;6101127;19;20027;-74
2023/11/17 09:17:51;;;;;;;4.50;3.25;;;;;;;2.96;100.00;98603.47;6098554;19;20610;-75
2023/11/17 09:19:53;;;;;;;5.35;3.42;;;;;;;3.03;100.00;98603.78;6101190;19;20022;-75
2023/11/17 09:21:53;;;;;;;6.70;3.25;;;;;;;3.05;100.00;98615.19;6101072;19;20017;-75
2023/11/17 09:23:54;;;;;;;6.82;3.90;;;;;;;3.11;100.00;98616.63;6099115;19;20467;-75
2023/11/17 09:25:54;;;;;;;7.55;4.20;;;;;;;3.14;100.00;98618.72;6100827;19;20328;-75
2023/11/17 09:27:58;;;;;;;8.63;5.05;;;;;;;3.16;100.00;98618.41;6099911;19;20462;-75
2023/11/17 09:29:59;;;;;;;6.32;4.55;;;;;;;3.16;100.00;98616.47;6100046;19;20007;-75
2023/11/17 09:31:59;;;;;;;6.60;4.10;;;;;;;3.21;100.00;98623.69;6100521;19;20031;-75